createdAt,value
2022-08-14T00:01:54.690Z,7.25
2022-08-14T00:04:34.975Z,6.35
2022-08-14T00:07:10.184Z,6.95
2022-08-14T00:09:55.227Z,6.45
2022-08-14T00:12:33.670Z,6.53
2022-08-14T00:15:18.085Z,6.10
2022-08-14T00:17:47.287Z,6.95
2022-08-14T00:20:24.002Z,6.75
2022-08-14T00:22:58.456Z,6.13
2022-08-14T00:25:41.591Z,6.60
2022-08-14T00:28:15.464Z,6.18
2022-08-14T00:30:46.998Z,5.90
2022-08-14T00:33:16.137Z,5.78
2022-08-14T00:36:36.593Z,6.68
2022-08-14T00:38:34.727Z,5.97
2022-08-14T00:41:04.723Z,6.70
2022-08-14T00:43:32.595Z,6.85
2022-08-14T00:46:09.105Z,6.18
2022-08-14T00:48:57.861Z,6.60
2022-08-14T00:51:37.785Z,7.00
2022-08-14T00:54:21.229Z,6.35
2022-08-14T00:56:54.916Z,6.40
2022-08-14T00:59:27.563Z,6.10
2022-08-14T01:02:00.808Z,5.43
2022-08-14T01:04:38.432Z,6.95
2022-08-14T01:07:20.778Z,6.45
2022-08-14T01:09:53.769Z,6.70
2022-08-14T01:12:26.996Z,6.82
2022-08-14T01:15:09.496Z,6.30
2022-08-14T01:17:55.934Z,6.88
2022-08-14T01:20:41.815Z,6.03
2022-08-14T01:23:16.758Z,6.03
2022-08-14T01:25:48.076Z,6.45
2022-08-14T01:28:46.336Z,6.72
2022-08-14T01:31:06.418Z,6.45
2022-08-14T01:33:44.637Z,6.03
2022-08-14T01:36:27.971Z,5.82
2022-08-14T01:38:58.678Z,6.47
2022-08-14T01:41:30.033Z,6.40
2022-08-14T01:44:01.543Z,6.13
2022-08-14T01:46:36.676Z,6.70
2022-08-14T01:49:06.259Z,6.53
2022-08-14T01:51:35.691Z,6.10
2022-08-14T01:54:07.433Z,6.32
2022-08-14T01:56:39.945Z,6.53
2022-08-14T01:59:10.219Z,6.20
2022-08-14T02:01:59.193Z,6.45
2022-08-14T02:04:54.482Z,6.40
2022-08-14T02:07:44.919Z,6.60
2022-08-14T02:10:12.891Z,6.70
2022-08-14T02:12:40.990Z,6.75
2022-08-14T02:15:10.738Z,6.68
2022-08-14T02:17:38.405Z,6.57
2022-08-14T02:20:08.656Z,5.90
2022-08-14T02:22:47.320Z,6.47
2022-08-14T02:25:16.803Z,6.30
2022-08-14T02:28:23.590Z,6.03
2022-08-14T02:30:34.822Z,6.72
2022-08-14T02:33:07.272Z,6.03
2022-08-14T02:35:40.618Z,6.03
2022-08-14T02:38:11.674Z,5.78
2022-08-14T02:40:40.552Z,6.47
2022-08-14T02:43:10.387Z,6.35
2022-08-14T02:45:44.557Z,6.13
2022-08-14T02:49:02.006Z,6.13
2022-08-14T02:51:01.371Z,6.15
2022-08-14T02:53:31.314Z,6.40
2022-08-14T02:56:02.552Z,5.97
2022-08-14T02:58:33.641Z,6.03
2022-08-14T03:01:06.021Z,5.50
2022-08-14T03:06:07.106Z,5.43
2022-08-14T03:08:37.868Z,5.70
2022-08-14T03:11:07.607Z,5.75
2022-08-14T03:13:36.870Z,6.43
2022-08-14T03:16:09.056Z,6.18
2022-08-14T03:18:48.441Z,5.63
2022-08-14T03:21:21.358Z,5.38
2022-08-14T03:23:50.111Z,4.93
2022-08-14T03:26:29.790Z,5.78
2022-08-14T03:29:01.267Z,6.68
2022-08-14T03:31:29.417Z,5.70
2022-08-14T03:34:00.065Z,5.55
2022-08-14T03:37:39.445Z,5.50
2022-08-14T03:39:23.024Z,5.90
2022-08-14T03:41:53.019Z,5.38
2022-08-14T03:45:26.593Z,5.70
2022-08-14T03:47:08.004Z,5.60
2022-08-14T03:49:36.346Z,5.43
2022-08-14T03:52:37.602Z,5.13
2022-08-14T03:54:59.313Z,5.40
2022-08-14T03:57:37.084Z,5.93
2022-08-14T04:00:08.882Z,5.78
2022-08-14T04:02:46.919Z,5.35
2022-08-14T04:05:16.713Z,5.63
2022-08-14T04:07:49.902Z,5.32
2022-08-14T04:10:32.942Z,4.88
2022-08-14T04:13:03.285Z,4.97
2022-08-14T04:15:55.689Z,5.82
2022-08-14T04:18:21.985Z,5.10
2022-08-14T04:20:54.809Z,5.32
2022-08-14T04:23:29.083Z,4.90
2022-08-14T04:25:57.342Z,4.40
2022-08-14T04:29:07.368Z,5.00
2022-08-14T04:31:15.291Z,5.15
2022-08-14T04:33:42.787Z,5.13
2022-08-14T04:36:16.085Z,5.35
2022-08-14T04:39:12.175Z,4.90
2022-08-14T04:42:02.157Z,5.00
2022-08-14T04:44:36.923Z,4.53
2022-08-14T04:47:23.709Z,4.13
2022-08-14T04:49:57.113Z,4.88
2022-08-14T04:52:25.577Z,4.45
2022-08-14T04:54:54.487Z,4.32
2022-08-14T04:57:22.814Z,4.30
2022-08-14T04:59:52.767Z,4.75
2022-08-14T05:02:21.559Z,4.35
2022-08-14T05:04:57.200Z,4.28
2022-08-14T05:07:54.720Z,3.75
2022-08-14T05:10:16.540Z,3.97
2022-08-14T05:13:13.449Z,4.10
2022-08-14T05:15:39.418Z,4.10
2022-08-14T05:18:17.794Z,4.15
2022-08-14T05:21:54.564Z,4.00
2022-08-14T05:23:48.850Z,4.28
2022-08-14T05:26:17.231Z,4.00
2022-08-14T05:28:46.150Z,3.80
2022-08-14T05:31:20.595Z,4.10
2022-08-14T05:33:56.595Z,3.92
2022-08-14T05:36:27.151Z,3.88
2022-08-14T05:38:55.339Z,4.50
2022-08-14T05:41:22.757Z,4.00
2022-08-14T05:43:51.103Z,4.00
2022-08-14T05:46:23.005Z,3.33
2022-08-14T05:48:57.321Z,3.97
2022-08-14T05:51:25.052Z,3.67
2022-08-14T05:54:01.404Z,3.47
2022-08-14T05:56:39.754Z,3.58
2022-08-14T05:59:07.456Z,4.07
2022-08-14T06:01:35.322Z,4.25
2022-08-14T06:04:04.622Z,4.53
2022-08-14T06:06:38.082Z,3.63
2022-08-14T06:09:09.752Z,3.90
2022-08-14T06:11:37.621Z,4.45
2022-08-14T06:14:06.671Z,3.85
2022-08-14T06:16:48.370Z,3.40
2022-08-14T06:19:18.376Z,3.75
2022-08-14T06:21:45.826Z,3.78
2022-08-14T06:24:18.822Z,3.35
2022-08-14T06:26:52.071Z,3.78
2022-08-14T06:29:24.055Z,3.80
2022-08-14T06:31:54.529Z,3.95
2022-08-14T06:35:03.521Z,3.95
2022-08-14T06:37:17.123Z,3.50
2022-08-14T06:39:45.196Z,3.65
2022-08-14T06:42:32.416Z,3.65
2022-08-14T06:45:01.248Z,3.42
2022-08-14T06:47:30.284Z,3.47
2022-08-14T06:49:58.484Z,3.33
2022-08-14T06:52:26.284Z,4.00
2022-08-14T06:54:57.830Z,4.22
2022-08-14T06:57:25.364Z,3.28
2022-08-14T06:59:52.638Z,3.40
2022-08-14T07:02:43.610Z,3.90
2022-08-14T07:07:58.149Z,3.38
2022-08-14T07:10:26.080Z,3.50
2022-08-14T07:13:04.082Z,3.83
2022-08-14T07:15:34.000Z,3.80
2022-08-14T07:18:02.444Z,3.53
2022-08-14T07:20:32.297Z,3.75
2022-08-14T07:23:08.452Z,3.80
2022-08-14T07:25:37.928Z,3.55
2022-08-14T07:28:20.561Z,3.60
2022-08-14T07:30:50.745Z,3.15
2022-08-14T07:33:24.574Z,3.30
2022-08-14T07:35:59.333Z,4.07
2022-08-14T07:38:34.006Z,3.20
2022-08-14T07:41:12.026Z,3.55
2022-08-14T07:43:42.518Z,3.22
2022-08-14T07:46:11.209Z,3.22
2022-08-14T07:48:40.781Z,3.55
2022-08-14T07:51:11.123Z,3.45
2022-08-14T07:53:40.449Z,3.30
2022-08-14T07:56:43.948Z,3.40
2022-08-14T07:58:58.843Z,3.17
2022-08-14T08:01:26.382Z,3.60
2022-08-14T08:03:59.444Z,3.25
2022-08-14T08:06:27.659Z,4.85
2022-08-14T08:09:01.270Z,3.85
2022-08-14T08:11:34.767Z,3.47
2022-08-14T08:14:10.414Z,3.38
2022-08-14T08:16:44.065Z,3.30
2022-08-14T08:19:12.582Z,3.45
2022-08-14T08:21:43.720Z,3.20
2022-08-14T08:24:11.270Z,3.33
2022-08-14T08:26:42.457Z,3.45
2022-08-14T08:29:09.759Z,3.20
2022-08-14T08:31:52.197Z,3.50
2022-08-14T08:34:19.859Z,2.90
2022-08-14T08:36:51.104Z,4.18
2022-08-14T08:39:22.922Z,3.95
2022-08-14T08:41:53.813Z,3.10
2022-08-14T08:44:32.094Z,3.45
2022-08-14T08:47:06.242Z,3.97
2022-08-14T08:49:43.280Z,3.70
2022-08-14T08:52:25.488Z,3.83
2022-08-14T08:55:01.105Z,4.28
2022-08-14T08:57:37.578Z,4.30
2022-08-14T09:00:24.432Z,4.03
2022-08-14T09:03:15.712Z,3.33
2022-08-14T09:05:54.453Z,3.50
2022-08-14T09:08:32.718Z,3.50
2022-08-14T09:11:19.718Z,3.25
2022-08-14T09:13:53.418Z,4.20
2022-08-14T09:16:25.333Z,3.42
2022-08-14T09:18:54.855Z,3.28
2022-08-14T09:21:24.315Z,3.45
2022-08-14T09:24:29.353Z,3.20
2022-08-14T09:26:49.232Z,3.33
2022-08-14T09:29:17.645Z,3.33
2022-08-14T09:31:53.258Z,3.50
2022-08-14T09:34:28.022Z,3.30
2022-08-14T09:37:19.399Z,3.35
2022-08-14T09:40:10.149Z,3.05
2022-08-14T09:42:51.267Z,3.70
2022-08-14T09:45:21.032Z,3.08
2022-08-14T09:47:55.002Z,3.10
2022-08-14T09:50:31.334Z,3.40
2022-08-14T09:53:05.045Z,3.50
2022-08-14T09:55:42.564Z,3.45
2022-08-14T09:58:19.476Z,3.20
2022-08-14T10:01:01.665Z,3.17
2022-08-14T10:03:35.527Z,3.55
2022-08-14T10:06:09.010Z,3.88
2022-08-14T10:08:51.145Z,3.20
2022-08-14T10:11:23.168Z,3.50
2022-08-14T10:13:56.018Z,3.05
2022-08-14T10:16:33.342Z,2.85
2022-08-14T10:19:04.806Z,3.78
2022-08-14T10:21:38.989Z,3.40
2022-08-14T10:24:36.298Z,3.10
2022-08-14T10:27:05.370Z,3.22
2022-08-14T10:29:38.533Z,3.88
2022-08-14T10:32:18.166Z,3.00
2022-08-14T10:35:13.491Z,3.53
2022-08-14T10:37:48.177Z,4.20
2022-08-14T10:40:37.327Z,3.60
2022-08-14T10:43:17.867Z,4.80
2022-08-14T10:46:03.742Z,3.70
2022-08-14T10:48:45.683Z,3.65
2022-08-14T10:51:24.927Z,3.42
2022-08-14T10:53:56.899Z,3.28
2022-08-14T10:56:34.953Z,3.05
2022-08-14T10:59:03.086Z,3.20
2022-08-14T11:01:32.389Z,3.53
2022-08-14T11:04:01.023Z,3.10
2022-08-14T11:06:31.395Z,3.50
2022-08-14T11:08:58.710Z,3.15
2022-08-14T11:11:37.098Z,3.45
2022-08-14T11:14:09.433Z,3.35
2022-08-14T11:16:53.393Z,3.78
2022-08-14T11:19:21.654Z,3.22
2022-08-14T11:21:55.435Z,3.20
2022-08-14T11:24:54.965Z,3.25
2022-08-14T11:27:11.427Z,3.15
2022-08-14T11:29:38.982Z,3.10
2022-08-14T11:32:06.907Z,3.03
2022-08-14T11:34:38.003Z,4.03
2022-08-14T11:37:22.931Z,3.50
2022-08-14T11:39:54.738Z,3.58
2022-08-14T11:42:56.961Z,3.17
2022-08-14T11:45:18.559Z,3.33
2022-08-14T11:48:13.292Z,3.88
2022-08-14T11:50:37.342Z,3.38
2022-08-14T11:53:07.065Z,3.35
2022-08-14T11:55:39.366Z,3.75
2022-08-14T11:58:09.599Z,3.30
2022-08-14T12:00:55.086Z,2.72
2022-08-14T12:03:37.380Z,3.42
2022-08-14T12:06:29.185Z,3.47
2022-08-14T12:09:00.673Z,2.80
2022-08-14T12:11:38.340Z,3.10
2022-08-14T12:14:29.088Z,2.97
2022-08-14T12:16:59.860Z,2.92
2022-08-14T12:19:33.552Z,2.83
2022-08-14T12:22:02.887Z,3.20
2022-08-14T12:24:36.822Z,3.10
2022-08-14T12:27:07.492Z,3.05
2022-08-14T12:29:34.996Z,2.83
2022-08-14T12:32:06.680Z,3.17
2022-08-14T12:34:37.470Z,3.05
2022-08-14T12:37:08.963Z,3.42
2022-08-14T12:39:40.445Z,3.63
2022-08-14T12:42:08.305Z,2.70
2022-08-14T12:44:39.943Z,2.85
2022-08-14T12:47:17.647Z,2.90
2022-08-14T12:49:52.983Z,2.60
2022-08-14T12:52:41.741Z,2.70
2022-08-14T12:55:18.586Z,2.72
2022-08-14T12:57:49.461Z,2.63
2022-08-14T13:00:24.697Z,2.95
2022-08-14T13:02:55.001Z,3.13
2022-08-14T13:05:24.600Z,2.92
2022-08-14T13:07:55.386Z,2.67
2022-08-14T13:10:47.131Z,2.85
2022-08-14T13:13:15.415Z,2.95
2022-08-14T13:15:45.431Z,2.85
2022-08-14T13:18:17.293Z,3.90
2022-08-14T13:20:51.415Z,3.20
2022-08-14T13:23:30.666Z,3.38
2022-08-14T13:26:00.310Z,3.28
2022-08-14T13:28:33.623Z,3.65
2022-08-14T13:31:10.930Z,3.25
2022-08-14T13:33:40.893Z,4.35
2022-08-14T13:36:24.333Z,4.55
2022-08-14T13:38:59.974Z,3.75
2022-08-14T13:41:31.693Z,4.03
2022-08-14T13:44:03.943Z,3.85
2022-08-14T13:46:31.568Z,4.03
2022-08-14T13:48:59.959Z,3.78
2022-08-14T13:51:27.472Z,3.72
2022-08-14T13:54:10.593Z,3.30
2022-08-14T13:56:39.807Z,3.63
2022-08-14T13:59:07.223Z,3.38
2022-08-14T14:01:42.963Z,3.47
2022-08-14T14:04:18.872Z,3.03
2022-08-14T14:06:49.113Z,2.72
2022-08-14T14:09:21.403Z,3.42
2022-08-14T14:11:53.015Z,3.40
2022-08-14T14:14:29.731Z,3.22
2022-08-14T14:17:11.817Z,4.38
2022-08-14T14:19:41.405Z,3.40
2022-08-14T14:22:09.784Z,3.67
2022-08-14T14:24:40.150Z,3.97
2022-08-14T14:27:39.605Z,4.07
2022-08-14T14:29:59.232Z,4.00
2022-08-14T14:32:32.026Z,4.10
2022-08-14T14:35:01.756Z,3.72
2022-08-14T14:37:29.845Z,4.55
2022-08-14T14:40:53.461Z,3.85
2022-08-14T14:42:53.245Z,3.65
2022-08-14T14:45:22.406Z,3.85
2022-08-14T14:47:58.910Z,4.00
2022-08-14T14:50:26.847Z,4.22
2022-08-14T14:53:12.468Z,3.97
2022-08-14T14:55:54.234Z,4.18
2022-08-14T14:58:30.011Z,4.13
2022-08-14T15:01:00.667Z,4.00
2022-08-14T15:03:30.479Z,4.10
2022-08-14T15:05:58.143Z,4.05
2022-08-14T15:08:26.642Z,3.67
2022-08-14T15:11:13.920Z,3.85
2022-08-14T15:13:43.087Z,4.00
2022-08-14T15:16:11.501Z,4.32
2022-08-14T15:18:46.840Z,4.25
2022-08-14T15:21:16.540Z,4.65
2022-08-14T15:23:45.019Z,4.65
2022-08-14T15:26:27.702Z,4.57
2022-08-14T15:29:03.308Z,4.45
2022-08-14T15:31:34.995Z,4.25
2022-08-14T15:34:45.928Z,4.80
2022-08-14T15:37:06.157Z,4.53
2022-08-14T15:39:38.708Z,4.47
2022-08-14T15:42:14.905Z,4.28
2022-08-14T15:44:57.909Z,4.32
2022-08-14T15:47:32.406Z,4.28
2022-08-14T15:50:02.899Z,3.88
2022-08-14T15:52:37.187Z,3.53
2022-08-14T15:55:09.886Z,4.30
2022-08-14T15:58:02.105Z,3.85
2022-08-14T16:00:49.393Z,3.60
2022-08-14T16:03:27.967Z,3.60
2022-08-14T16:06:10.824Z,3.92
2022-08-14T16:08:43.549Z,4.13
2022-08-14T16:11:11.338Z,4.13
2022-08-14T16:13:43.398Z,3.95
2022-08-14T16:16:47.628Z,3.97
2022-08-14T16:19:11.084Z,4.13
2022-08-14T16:22:01.268Z,3.92
2022-08-14T16:24:33.447Z,3.90
2022-08-14T16:27:01.678Z,3.80
2022-08-14T16:29:34.563Z,3.92
2022-08-14T16:32:32.821Z,3.90
2022-08-14T16:34:54.882Z,3.55
2022-08-14T16:37:23.235Z,4.13
2022-08-14T16:39:58.459Z,4.22
2022-08-14T16:43:02.648Z,4.45
2022-08-14T16:45:18.659Z,4.68
2022-08-14T16:47:47.813Z,4.55
2022-08-14T16:50:40.678Z,4.30
2022-08-14T16:53:07.194Z,4.55
2022-08-14T16:55:53.790Z,4.35
2022-08-14T16:58:29.960Z,4.45
2022-08-14T17:01:22.662Z,4.50
2022-08-14T17:03:56.716Z,4.40
2022-08-14T17:06:43.020Z,4.25
2022-08-14T17:09:43.437Z,4.50
2022-08-14T17:12:33.526Z,4.45
2022-08-14T17:15:10.793Z,4.53
2022-08-14T17:17:38.858Z,3.95
2022-08-14T17:20:30.996Z,4.18
2022-08-14T17:22:58.582Z,3.95
2022-08-14T17:25:30.108Z,4.05
2022-08-14T17:28:51.888Z,3.65
2022-08-14T17:31:08.497Z,3.80
2022-08-14T17:33:40.859Z,3.72
2022-08-14T17:36:21.405Z,4.35
2022-08-14T17:38:59.699Z,3.60
2022-08-14T17:41:32.881Z,4.28
2022-08-14T17:44:13.418Z,3.45
2022-08-14T17:46:55.166Z,4.55
2022-08-14T17:49:32.170Z,4.10
2022-08-14T17:52:16.977Z,4.13
2022-08-14T17:54:52.626Z,3.92
2022-08-14T17:57:26.263Z,4.70
2022-08-14T17:59:56.989Z,5.05
2022-08-14T18:02:31.245Z,4.38
2022-08-14T18:05:00.152Z,4.70
2022-08-14T18:07:59.248Z,4.18
2022-08-14T18:10:52.917Z,4.47
2022-08-14T18:13:10.583Z,4.63
2022-08-14T18:15:41.467Z,3.80
2022-08-14T18:18:11.826Z,4.45
2022-08-14T18:21:25.722Z,4.23
2022-08-14T18:23:28.279Z,4.18
2022-08-14T18:25:55.894Z,3.83
2022-08-14T18:28:32.203Z,4.20
2022-08-14T18:31:22.753Z,3.53
2022-08-14T18:33:56.438Z,4.10
2022-08-14T18:36:56.722Z,4.13
2022-08-14T18:39:34.777Z,4.07
2022-08-14T18:42:23.738Z,4.03
2022-08-14T18:44:52.648Z,3.88
2022-08-14T18:47:21.930Z,4.30
2022-08-14T18:49:55.727Z,3.47
2022-08-14T18:52:39.912Z,4.45
2022-08-14T18:55:15.977Z,4.20
2022-08-14T18:58:02.711Z,4.10
2022-08-14T19:00:33.869Z,4.00
2022-08-14T19:03:03.478Z,4.75
2022-08-14T19:05:47.311Z,3.90
2022-08-14T19:08:18.512Z,4.10
2022-08-14T19:10:50.200Z,4.00
2022-08-14T19:13:48.058Z,3.60
2022-08-14T19:16:23.070Z,3.50
2022-08-14T19:19:00.250Z,3.50
2022-08-14T19:21:35.644Z,3.28
2022-08-14T19:24:30.302Z,3.38
2022-08-14T19:27:24.619Z,3.67
2022-08-14T19:30:19.760Z,3.17
2022-08-14T19:32:55.735Z,3.22
2022-08-14T19:35:49.315Z,3.28
2022-08-14T19:38:45.173Z,3.17
2022-08-14T19:41:15.265Z,3.08
2022-08-14T19:43:55.505Z,3.37
2022-08-14T19:49:07.265Z,2.85
2022-08-14T19:51:46.278Z,2.95
2022-08-14T19:54:16.444Z,3.85
2022-08-14T19:56:45.046Z,3.80
2022-08-14T19:59:17.633Z,3.53
2022-08-14T20:01:45.450Z,3.72
2022-08-14T20:04:46.022Z,4.00
2022-08-14T20:07:06.305Z,4.13
2022-08-14T20:11:05.758Z,4.28
2022-08-14T20:12:35.397Z,4.63
2022-08-14T20:15:08.747Z,4.80
2022-08-14T20:17:40.789Z,5.20
2022-08-14T20:20:20.964Z,4.97
2022-08-14T20:23:11.507Z,5.25
2022-08-14T20:25:45.594Z,5.22
2022-08-14T20:28:30.745Z,5.45
2022-08-14T20:31:17.788Z,5.63
2022-08-14T20:34:06.114Z,5.53
2022-08-14T20:36:40.658Z,5.43
2022-08-14T20:39:15.052Z,5.68
2022-08-14T20:41:51.504Z,5.45
2022-08-14T20:44:41.218Z,5.43
2022-08-14T20:47:15.026Z,5.15
2022-08-14T20:49:42.445Z,5.25
2022-08-14T20:52:18.758Z,5.00
2022-08-14T20:54:51.632Z,5.18
2022-08-14T20:57:19.373Z,5.45
2022-08-14T20:59:53.077Z,5.13
2022-08-14T21:02:34.534Z,4.68
2022-08-14T21:05:17.253Z,5.05
2022-08-14T21:07:50.254Z,4.55
2022-08-14T21:10:33.602Z,4.50
2022-08-14T21:13:13.963Z,4.25
2022-08-14T21:15:56.831Z,4.00
2022-08-14T21:21:00.082Z,4.20
2022-08-14T21:23:32.873Z,4.20
2022-08-14T21:26:00.438Z,4.78
2022-08-14T21:28:30.695Z,4.47
2022-08-14T21:31:04.427Z,3.67
2022-08-14T21:33:34.403Z,4.27
2022-08-14T21:36:07.610Z,3.92
2022-08-14T21:38:38.152Z,3.53
2022-08-14T21:41:41.947Z,3.92
2022-08-14T21:44:18.066Z,3.75
2022-08-14T21:46:53.361Z,3.60
2022-08-14T21:49:35.951Z,4.40
2022-08-14T21:52:50.950Z,3.83
2022-08-14T21:55:08.702Z,3.38
2022-08-14T21:58:44.494Z,3.40
2022-08-14T22:00:39.496Z,4.57
2022-08-14T22:03:17.040Z,3.85
2022-08-14T22:05:46.368Z,3.55
2022-08-14T22:08:14.378Z,3.38
2022-08-14T22:10:46.781Z,3.22
2022-08-14T22:13:19.480Z,3.25
2022-08-14T22:15:50.117Z,3.35
2022-08-14T22:18:21.152Z,3.35
2022-08-14T22:20:53.949Z,3.03
2022-08-14T22:23:24.159Z,3.53
2022-08-14T22:25:52.336Z,3.35
2022-08-14T22:28:22.645Z,3.17
2022-08-14T22:30:55.137Z,3.17
2022-08-14T22:33:31.254Z,3.22
2022-08-14T22:36:00.269Z,3.13
2022-08-14T22:38:35.706Z,3.28
2022-08-14T22:41:29.269Z,3.60
2022-08-14T22:43:54.581Z,3.33
2022-08-14T22:46:22.115Z,3.33
2022-08-14T22:48:51.254Z,2.75
2022-08-14T22:51:20.390Z,2.80
2022-08-14T22:53:48.646Z,3.90
2022-08-14T22:56:21.881Z,3.30
2022-08-14T22:58:54.310Z,3.03
2022-08-14T23:01:56.445Z,3.15
2022-08-14T23:04:35.080Z,2.92
2022-08-14T23:07:21.945Z,3.17
2022-08-14T23:09:56.211Z,3.20
2022-08-14T23:12:29.683Z,3.78
2022-08-14T23:15:00.248Z,3.13
2022-08-14T23:17:39.411Z,3.40
2022-08-14T23:20:19.146Z,3.28
2022-08-14T23:22:51.546Z,3.60
2022-08-14T23:25:20.127Z,3.50
2022-08-14T23:28:33.634Z,3.67
2022-08-14T23:30:55.395Z,3.45
2022-08-14T23:33:22.762Z,3.53
2022-08-14T23:35:58.683Z,3.45
2022-08-14T23:38:30.737Z,3.50
2022-08-14T23:41:03.218Z,3.30
2022-08-14T23:43:32.474Z,3.50
2022-08-14T23:46:00.752Z,3.05
2022-08-14T23:48:29.252Z,3.45
2022-08-14T23:50:56.809Z,3.75
2022-08-14T23:53:47.879Z,3.67
2022-08-14T23:56:32.090Z,3.67
2022-08-14T23:59:01.093Z,3.63
